Time;durP1;ratioP1;P1;durP2;ratioP2;P2;SDS_P1;SDS_P2;PMS_P1;PMS_P2;Temp;Humidity;BMP_temperature;BMP_pressure;BME280_temperature;BME280_humidity;BME280_pressure;Samples;Min_cycle;Max_cycle;Signal;HPM_P1;HPM_P2
2022/11/29 05:02:57;;;;;;;21.38;11.02;;;8.40;99.90;;;;;;4937972;23;20504;-71
2022/11/29 05:05:38;;;;;;;14.63;9.25;;;8.40;99.90;;;;;;4918080;29;20032;-72
2022/11/29 05:08:42;;;;;;;16.42;9.82;;;8.40;99.90;;;;;;4920056;29;20114;-73
2022/11/29 05:11:31;;;;;;;20.98;10.20;;;8.30;99.90;;;;;;4869165;29;20402;-72
2022/11/29 05:14:23;;;;;;;18.63;9.85;;;8.20;99.90;;;;;;4907111;29;20040;-72
2022/11/29 05:17:12;;;;;;;15.38;9.15;;;8.20;99.90;;;;;;4914600;29;20103;-74
2022/11/29 05:19:50;;;;;;;16.02;9.40;;;8.30;99.90;;;;;;4899197;29;20048;-72
2022/11/29 05:22:31;;;;;;;14.75;9.68;;;8.20;99.90;;;;;;4899960;29;20033;-71
2022/11/29 05:25:28;;;;;;;16.27;8.80;;;8.30;99.90;;;;;;4899380;29;20036;-69
2022/11/29 05:28:19;;;;;;;16.80;8.90;;;8.40;99.90;;;;;;4901149;29;20037;-71
2022/11/29 05:31:25;;;;;;;14.75;8.30;;;8.50;99.90;;;;;;4885793;29;20041;-73
2022/11/29 05:34:29;;;;;;;11.75;7.22;;;8.50;99.90;;;;;;4900645;29;20032;-73
2022/11/29 05:37:20;;;;;;;12.02;8.43;;;8.60;99.90;;;;;;4899115;29;20020;-73
2022/11/29 05:40:23;;;;;;;15.57;8.77;;;8.40;99.90;;;;;;4899229;29;20115;-73
2022/11/29 05:43:13;;;;;;;17.52;9.88;;;8.30;99.90;;;;;;4900646;29;20056;-72
2022/11/29 05:45:57;;;;;;;13.90;9.20;;;8.30;99.90;;;;;;4900800;29;20039;-73
2022/11/29 05:48:56;;;;;;;16.58;8.85;;;8.50;99.90;;;;;;4901906;29;20032;-69
2022/11/29 05:51:28;;;;;;;16.33;8.75;;;8.60;99.90;;;;;;4895268;29;20044;-74
2022/11/29 05:54:15;;;;;;;14.45;8.38;;;8.60;99.90;;;;;;4899706;29;20029;-73
2022/11/29 05:56:58;;;;;;;16.52;8.85;;;8.60;99.90;;;;;;4899526;29;20055;-74
2022/11/29 05:59:28;;;;;;;15.65;8.68;;;8.70;99.90;;;;;;4899887;29;20213;-74
2022/11/29 06:02:18;;;;;;;13.65;8.80;;;8.70;99.90;;;;;;4899715;29;20036;-71
2022/11/29 06:05:12;;;;;;;14.95;9.48;;;8.70;99.90;;;;;;4900687;29;20032;-72
2022/11/29 06:07:43;;;;;;;14.27;9.20;;;8.70;99.90;;;;;;4895247;29;20482;-70
2022/11/29 06:10:24;;;;;;;18.88;9.68;;;8.70;99.90;;;;;;4895782;29;20064;-72
2022/11/29 06:13:07;;;;;;;17.25;8.90;;;8.70;99.90;;;;;;4892151;29;20025;-72
2022/11/29 06:16:02;;;;;;;17.15;9.82;;;8.70;99.90;;;;;;4900871;29;20048;-73
2022/11/29 06:19:10;;;;;;;14.02;9.27;;;8.70;99.90;;;;;;4900961;29;20084;-73
2022/11/29 06:21:58;;;;;;;14.95;9.32;;;8.70;99.90;;;;;;4899515;29;20040;-73
2022/11/29 06:25:00;;;;;;;21.27;10.70;;;8.50;99.90;;;;;;4900045;29;20048;-73
2022/11/29 06:27:35;;;;;;;14.98;10.32;;;8.40;99.90;;;;;;4872958;29;20064;-73
2022/11/29 06:30:09;;;;;;;16.23;9.85;;;8.50;99.90;;;;;;4900385;29;20099;-73
2022/11/29 06:32:55;;;;;;;14.55;9.98;;;8.50;99.90;;;;;;4898468;29;20029;-72
2022/11/29 06:35:44;;;;;;;13.65;9.40;;;8.60;99.90;;;;;;4885049;29;20068;-72
2022/11/29 06:38:22;;;;;;;18.02;9.63;;;8.60;99.90;;;;;;4879195;29;20032;-70
2022/11/29 06:40:49;;;;;;;19.40;11.07;;;8.60;99.90;;;;;;4880812;29;20216;-70
2022/11/29 06:43:15;;;;;;;22.60;14.45;;;8.50;99.90;;;;;;4879290;29;20451;-71
2022/11/29 06:45:52;;;;;;;16.55;10.07;;;8.50;99.90;;;;;;4879555;29;20029;-73
2022/11/29 06:48:33;;;;;;;19.63;11.45;;;8.40;99.90;;;;;;4880704;29;20029;-72
2022/11/29 06:51:20;;;;;;;19.52;11.55;;;8.30;99.90;;;;;;4880199;29;20112;-72
2022/11/29 06:54:03;;;;;;;22.67;13.85;;;8.30;99.90;;;;;;4881135;29;20066;-72
2022/11/29 06:56:52;;;;;;;18.13;11.65;;;8.40;99.90;;;;;;4882857;29;20032;-72
2022/11/29 06:59:35;;;;;;;18.33;11.45;;;8.50;99.90;;;;;;4882488;29;20029;-72
2022/11/29 07:02:11;;;;;;;20.73;12.25;;;8.60;99.90;;;;;;4882208;29;20028;-71
2022/11/29 07:05:01;;;;;;;22.33;13.23;;;8.60;99.90;;;;;;4882225;29;20036;-72
2022/11/29 07:07:27;;;;;;;22.48;12.35;;;8.60;99.90;;;;;;4895830;29;20048;-71
2022/11/29 07:09:59;;;;;;;19.25;11.63;;;8.60;99.90;;;;;;4900175;29;20028;-72
2022/11/29 07:12:25;;;;;;;21.52;12.38;;;8.50;99.90;;;;;;4899986;29;20045;-72
2022/11/29 07:14:51;;;;;;;22.60;13.25;;;8.60;99.90;;;;;;4902136;29;20025;-71
2022/11/29 07:17:37;;;;;;;20.27;13.35;;;8.50;99.90;;;;;;4901937;29;20033;-70
2022/11/29 07:20:34;;;;;;;19.48;13.15;;;8.50;99.90;;;;;;4900296;29;20025;-69
2022/11/29 07:23:28;;;;;;;21.17;12.82;;;8.60;99.90;;;;;;4899775;29;20028;-72
2022/11/29 07:26:05;;;;;;;20.25;12.48;;;8.70;99.90;;;;;;4899086;29;20104;-70
2022/11/29 07:28:40;;;;;;;22.92;13.13;;;8.70;99.90;;;;;;4900511;29;20029;-71
2022/11/29 07:31:18;;;;;;;18.98;12.65;;;8.90;99.90;;;;;;4901325;29;20060;-69
2022/11/29 07:34:01;;;;;;;18.85;11.02;;;8.90;99.90;;;;;;4898138;29;20024;-71
2022/11/29 07:36:43;;;;;;;19.42;12.32;;;8.90;99.90;;;;;;4898774;29;20028;-71
2022/11/29 07:39:40;;;;;;;21.25;12.68;;;8.90;99.90;;;;;;4897881;29;20373;-71
2022/11/29 07:42:24;;;;;;;18.95;12.60;;;8.90;99.90;;;;;;4882505;29;20111;-73
2022/11/29 07:45:07;;;;;;;22.38;13.77;;;8.90;99.90;;;;;;4899610;29;20370;-72
2022/11/29 07:47:33;;;;;;;26.45;13.90;;;8.90;99.90;;;;;;4899319;29;20033;-72
2022/11/29 07:49:58;;;;;;;22.07;14.27;;;8.80;99.90;;;;;;4897974;29;20039;-71
2022/11/29 07:52:24;;;;;;;25.90;14.17;;;8.70;99.90;;;;;;4897783;29;20028;-71
2022/11/29 07:54:50;;;;;;;27.20;14.77;;;8.80;99.90;;;;;;4898386;29;20067;-72
2022/11/29 07:57:15;;;;;;;27.57;14.67;;;8.70;99.90;;;;;;4896881;29;20059;-72
2022/11/29 07:59:41;;;;;;;23.03;13.87;;;8.90;99.90;;;;;;4896965;29;20044;-72
2022/11/29 08:02:06;;;;;;;23.63;14.37;;;9.00;99.90;;;;;;4898043;29;20044;-72
2022/11/29 08:04:32;;;;;;;23.77;13.40;;;9.00;99.90;;;;;;4898053;29;20028;-72
2022/11/29 08:06:59;;;;;;;27.83;14.67;;;9.00;99.90;;;;;;4895919;29;20033;-72
2022/11/29 08:09:24;;;;;;;24.55;15.52;;;9.00;99.90;;;;;;4897898;29;20035;-72
2022/11/29 08:11:50;;;;;;;26.73;16.70;;;9.00;99.90;;;;;;4896607;29;20398;-73
2022/11/29 08:14:16;;;;;;;26.23;15.73;;;8.90;99.90;;;;;;4896229;29;20509;-72
2022/11/29 08:16:41;;;;;;;28.20;17.73;;;9.00;99.90;;;;;;4897968;29;20076;-72
2022/11/29 08:19:07;;;;;;;22.33;15.43;;;9.00;99.90;;;;;;4896805;29;20049;-73
2022/11/29 08:21:32;;;;;;;27.73;15.97;;;8.90;99.90;;;;;;4896881;29;20029;-72
2022/11/29 08:23:58;;;;;;;24.33;15.77;;;8.90;99.90;;;;;;4904251;29;20042;-73
2022/11/29 08:26:23;;;;;;;25.07;15.93;;;8.90;99.90;;;;;;4909187;29;20033;-73
2022/11/29 08:28:51;;;;;;;24.50;15.87;;;8.80;99.90;;;;;;4908497;29;20479;-73
2022/11/29 08:31:17;;;;;;;26.55;16.90;;;8.90;99.90;;;;;;4910134;29;20048;-73
2022/11/29 08:33:43;;;;;;;26.52;17.02;;;8.80;99.90;;;;;;4910617;29;20029;-73
2022/11/29 08:36:13;;;;;;;26.17;16.15;;;8.90;99.90;;;;;;4910457;29;20024;-73
2022/11/29 08:38:39;;;;;;;25.48;16.20;;;9.00;99.90;;;;;;4908622;29;20028;-73
2022/11/29 08:41:06;;;;;;;27.07;18.03;;;9.00;99.90;;;;;;4904263;29;20029;-73
2022/11/29 08:43:33;;;;;;;27.02;17.08;;;8.90;99.90;;;;;;4904906;29;20032;-72
2022/11/29 08:45:58;;;;;;;27.90;17.25;;;8.90;99.90;;;;;;4907093;29;20024;-73
2022/11/29 08:48:24;;;;;;;27.17;17.30;;;8.80;99.90;;;;;;4908409;29;20037;-74
2022/11/29 08:50:51;;;;;;;29.10;17.80;;;8.90;99.90;;;;;;4903218;29;20124;-74
2022/11/29 08:56:03;;;;;;;30.65;18.45;;;8.90;99.90;;;;;;4902147;29;20103;-73
2022/11/29 08:58:29;;;;;;;27.65;17.85;;;8.80;99.90;;;;;;4899472;29;20357;-73
2022/11/29 09:00:54;;;;;;;28.10;18.40;;;8.90;99.90;;;;;;4899250;29;20080;-73
2022/11/29 09:06:09;;;;;;;31.48;19.48;;;8.80;99.90;;;;;;4899371;29;20748;-73
2022/11/29 09:08:35;;;;;;;30.88;18.25;;;8.70;99.90;;;;;;4897288;29;20051;-73
2022/11/29 09:11:07;;;;;;;28.83;19.27;;;8.70;99.90;;;;;;4897135;29;20365;-74
2022/11/29 09:13:33;;;;;;;28.90;18.58;;;8.80;99.90;;;;;;4896222;29;20036;-74
2022/11/29 09:15:58;;;;;;;31.23;18.40;;;8.80;99.90;;;;;;4898163;29;20067;-74
2022/11/29 09:18:27;;;;;;;28.23;17.47;;;8.80;99.90;;;;;;4896843;29;20164;-74
2022/11/29 09:20:52;;;;;;;29.35;18.25;;;8.80;99.90;;;;;;4897742;29;20112;-72
2022/11/29 09:23:18;;;;;;;27.43;18.47;;;8.90;99.90;;;;;;4897442;29;20056;-72
2022/11/29 09:25:48;;;;;;;30.37;18.00;;;8.90;99.90;;;;;;4898080;29;20481;-72
2022/11/29 09:28:14;;;;;;;27.83;17.65;;;9.00;99.90;;;;;;4900517;29;20040;-73
2022/11/29 09:30:40;;;;;;;26.80;18.42;;;8.90;99.90;;;;;;4899672;29;20028;-73
2022/11/29 09:33:05;;;;;;;31.10;19.42;;;8.70;99.90;;;;;;4900314;29;20451;-74
2022/11/29 09:35:32;;;;;;;28.07;18.43;;;8.70;99.90;;;;;;4901175;29;20060;-73
2022/11/29 09:37:58;;;;;;;29.23;18.75;;;8.70;99.90;;;;;;4899566;29;20025;-72
2022/11/29 09:40:41;;;;;;;26.17;17.97;;;8.70;99.90;;;;;;4899798;29;20485;-73
2022/11/29 09:43:24;;;;;;;28.80;17.50;;;8.70;99.90;;;;;;4899897;29;20363;-73
2022/11/29 09:46:02;;;;;;;24.27;17.27;;;8.80;99.90;;;;;;4900956;29;20024;-74
2022/11/29 09:48:57;;;;;;;24.25;16.90;;;8.80;99.90;;;;;;4901135;29;20036;-73
2022/11/29 09:51:42;;;;;;;25.38;16.52;;;8.80;99.90;;;;;;4901981;29;20036;-74
2022/11/29 09:54:18;;;;;;;26.25;17.80;;;9.00;99.90;;;;;;4899855;29;20039;-73
2022/11/29 09:56:48;;;;;;;24.83;16.45;;;9.00;99.90;;;;;;4900331;29;20067;-73
2022/11/29 09:59:27;;;;;;;22.88;17.05;;;9.00;99.90;;;;;;4899123;29;20162;-73
2022/11/29 10:02:21;;;;;;;22.33;16.40;;;9.00;99.90;;;;;;4899232;29;20071;-73
2022/11/29 10:04:53;;;;;;;25.95;17.05;;;9.00;99.90;;;;;;4900171;29;20036;-73
2022/11/29 10:07:43;;;;;;;25.05;16.30;;;9.00;99.90;;;;;;4898503;29;20375;-74
2022/11/29 10:10:36;;;;;;;23.45;15.98;;;8.90;99.90;;;;;;4898827;29;20032;-73
2022/11/29 10:13:14;;;;;;;27.27;15.93;;;9.00;99.90;;;;;;4899844;29;20051;-73
2022/11/29 10:15:44;;;;;;;23.10;16.42;;;9.10;99.90;;;;;;4899088;29;20069;-73
2022/11/29 10:18:14;;;;;;;24.88;17.58;;;9.00;99.90;;;;;;4899124;29;20039;-73
2022/11/29 10:20:43;;;;;;;25.95;16.35;;;9.10;99.90;;;;;;4898818;29;20044;-72
2022/11/29 10:23:21;;;;;;;24.45;16.35;;;9.20;99.90;;;;;;4898967;29;20020;-73
2022/11/29 10:25:50;;;;;;;25.42;16.33;;;9.40;99.90;;;;;;4900646;29;20024;-73
2022/11/29 10:28:18;;;;;;;25.67;16.27;;;9.30;99.90;;;;;;4899242;29;20028;-74
2022/11/29 10:30:45;;;;;;;24.38;14.82;;;9.50;99.90;;;;;;4899412;29;20033;-74
2022/11/29 10:33:20;;;;;;;23.05;14.93;;;9.50;99.90;;;;;;4900963;29;20032;-75
2022/11/29 10:35:48;;;;;;;21.77;15.00;;;9.70;99.90;;;;;;4898931;29;20028;-74
2022/11/29 10:38:14;;;;;;;22.90;16.27;;;9.40;99.90;;;;;;4899644;29;20031;-73
2022/11/29 10:40:45;;;;;;;23.85;15.88;;;9.20;99.90;;;;;;4899659;29;20462;-74
2022/11/29 10:43:11;;;;;;;21.63;15.85;;;9.20;99.90;;;;;;4901658;29;20116;-73
2022/11/29 10:45:54;;;;;;;23.05;15.90;;;9.20;99.90;;;;;;4899685;29;20493;-74
2022/11/29 10:48:22;;;;;;;21.67;14.13;;;9.30;99.90;;;;;;4900248;29;20060;-74
2022/11/29 10:50:50;;;;;;;23.20;15.82;;;9.30;99.90;;;;;;4900401;29;20029;-73
2022/11/29 10:53:23;;;;;;;21.08;15.52;;;9.40;99.90;;;;;;4900596;29;20052;-74
2022/11/29 10:55:50;;;;;;;20.92;15.02;;;9.40;99.90;;;;;;4902332;29;20029;-73
2022/11/29 10:58:23;;;;;;;20.92;14.60;;;9.50;99.90;;;;;;4900418;29;20029;-73
2022/11/29 11:01:06;;;;;;;21.92;15.38;;;9.50;99.90;;;;;;4901863;29;20025;-74
2022/11/29 11:03:41;;;;;;;22.63;15.50;;;9.60;99.90;;;;;;4903291;29;20052;-74
2022/11/29 11:06:16;;;;;;;22.73;15.55;;;9.70;99.90;;;;;;4903479;29;20382;-72
2022/11/29 11:09:09;;;;;;;23.52;16.98;;;9.50;99.90;;;;;;4885785;29;20024;-74
2022/11/29 11:11:35;;;;;;;21.33;16.15;;;9.60;99.90;;;;;;4871692;29;20048;-73
2022/11/29 11:14:21;;;;;;;28.40;16.93;;;9.50;99.90;;;;;;4885685;29;20344;-73
2022/11/29 11:16:47;;;;;;;23.63;16.48;;;9.70;99.90;;;;;;4883468;29;20029;-70
2022/11/29 11:19:39;;;;;;;23.97;15.87;;;9.70;99.90;;;;;;4914010;29;20096;-70
2022/11/29 11:22:04;;;;;;;24.35;17.15;;;9.80;99.90;;;;;;4898771;29;20092;-71
2022/11/29 11:24:39;;;;;;;24.87;17.83;;;9.70;99.90;;;;;;4900482;29;20032;-70
2022/11/29 11:27:04;;;;;;;25.67;17.98;;;9.80;99.90;;;;;;4900232;29;20033;-70
2022/11/29 11:29:43;;;;;;;24.10;18.15;;;9.70;99.90;;;;;;4900443;29;20028;-69
2022/11/29 11:32:19;;;;;;;24.98;18.35;;;9.90;99.90;;;;;;4903574;29;20513;-70
2022/11/29 11:34:53;;;;;;;27.55;19.58;;;9.90;99.90;;;;;;4905103;29;20052;-70
2022/11/29 11:37:28;;;;;;;35.38;20.63;;;9.90;99.90;;;;;;4903406;29;20028;-70
2022/11/29 11:39:59;;;;;;;33.75;20.75;;;9.90;99.90;;;;;;4905211;29;20474;-70
2022/11/29 11:42:37;;;;;;;27.90;19.95;;;9.80;99.90;;;;;;4904601;29;20481;-69
2022/11/29 11:45:11;;;;;;;28.95;18.90;;;9.90;99.90;;;;;;4904421;29;20060;-69
2022/11/29 11:47:43;;;;;;;32.50;19.50;;;9.70;99.90;;;;;;4900958;29;20070;-70
2022/11/29 11:50:15;;;;;;;27.17;19.85;;;9.70;99.90;;;;;;4897217;29;20028;-68
2022/11/29 11:52:53;;;;;;;33.03;21.23;;;9.70;99.90;;;;;;4898063;29;20021;-69
2022/11/29 11:55:29;;;;;;;31.70;19.52;;;9.90;99.90;;;;;;4898573;29;20033;-69
2022/11/29 11:58:04;;;;;;;31.63;19.73;;;10.00;99.90;;;;;;4898307;29;20124;-69
2022/11/29 12:00:50;;;;;;;27.90;19.98;;;10.10;99.90;;;;;;4897107;29;20028;-69
2022/11/29 12:03:22;;;;;;;31.85;20.08;;;10.10;99.90;;;;;;4898059;29;20032;-69
2022/11/29 12:05:51;;;;;;;34.83;22.88;;;10.00;99.90;;;;;;4898403;29;20119;-68
2022/11/29 12:08:18;;;;;;;31.42;20.23;;;10.00;99.90;;;;;;4897963;29;20086;-70
2022/11/29 12:10:45;;;;;;;39.10;22.20;;;9.90;99.90;;;;;;4898673;29;20084;-69
2022/11/29 12:13:18;;;;;;;34.95;22.88;;;9.70;99.90;;;;;;4898269;29;20031;-70
2022/11/29 12:15:46;;;;;;;36.38;24.23;;;9.90;99.90;;;;;;4898339;29;20117;-69
2022/11/29 12:18:27;;;;;;;34.67;23.77;;;9.80;99.90;;;;;;4898579;29;20025;-69
2022/11/29 12:21:11;;;;;;;36.50;23.23;;;9.80;99.90;;;;;;4901341;29;20110;-70
2022/11/29 12:23:44;;;;;;;37.08;22.50;;;9.80;99.90;;;;;;4899363;29;20542;-68
2022/11/29 12:26:23;;;;;;;33.97;23.02;;;9.80;99.90;;;;;;4897834;29;20040;-67
2022/11/29 12:28:49;;;;;;;34.03;21.83;;;9.90;99.90;;;;;;4896575;29;20033;-68
2022/11/29 12:31:37;;;;;;;32.47;20.07;;;10.00;99.90;;;;;;4898356;29;20025;-68
2022/11/29 12:34:27;;;;;;;35.47;20.67;;;9.70;99.90;;;;;;4897725;29;20029;-68
2022/11/29 12:37:19;;;;;;;31.08;20.50;;;9.70;99.90;;;;;;4898596;29;20029;-67
2022/11/29 12:40:00;;;;;;;28.83;19.58;;;9.90;99.90;;;;;;4893435;29;20132;-67
2022/11/29 12:42:40;;;;;;;31.88;20.92;;;10.00;99.90;;;;;;4880199;29;20039;-66
2022/11/29 12:45:33;;;;;;;33.35;21.20;;;10.00;99.90;;;;;;4879742;29;20496;-66
2022/11/29 12:48:16;;;;;;;30.75;21.83;;;10.00;99.90;;;;;;4886734;29;20032;-67
2022/11/29 12:50:54;;;;;;;40.83;22.70;;;10.00;99.90;;;;;;4897768;29;20051;-71
2022/11/29 12:53:44;;;;;;;37.53;23.73;;;9.90;99.90;;;;;;4897469;29;20036;-69
2022/11/29 12:56:09;;;;;;;35.80;22.30;;;9.90;99.90;;;;;;4897825;29;20097;-69
2022/11/29 12:59:02;;;;;;;37.60;23.23;;;9.80;99.90;;;;;;4896474;29;20420;-69
2022/11/29 13:01:38;;;;;;;39.05;22.80;;;9.80;99.90;;;;;;4899582;29;20033;-69
2022/11/29 13:04:10;;;;;;;35.17;21.48;;;9.90;99.90;;;;;;4901371;29;20033;-70
2022/11/29 13:06:57;;;;;;;34.47;23.13;;;10.00;99.90;;;;;;4899909;29;20038;-70
2022/11/29 13:09:37;;;;;;;40.88;23.77;;;10.20;99.90;;;;;;4901561;29;20033;-69
2022/11/29 13:12:21;;;;;;;37.67;22.58;;;9.90;99.90;;;;;;4901458;29;20032;-70
2022/11/29 13:15:05;;;;;;;41.85;23.92;;;10.00;99.90;;;;;;4900558;29;20032;-70
2022/11/29 13:17:42;;;;;;;37.30;23.80;;;9.90;99.90;;;;;;4900909;29;20032;-70
2022/11/29 13:20:21;;;;;;;42.85;24.88;;;9.80;99.90;;;;;;4900895;29;20426;-70
2022/11/29 13:23:07;;;;;;;36.88;22.48;;;9.90;99.90;;;;;;4901076;29;20060;-69
2022/11/29 13:25:38;;;;;;;37.88;22.45;;;10.00;99.90;;;;;;4900018;29;20024;-69
2022/11/29 13:28:09;;;;;;;39.95;22.80;;;10.00;99.90;;;;;;4900816;29;20125;-69
2022/11/29 13:30:37;;;;;;;38.72;22.38;;;10.00;99.90;;;;;;4900962;29;20024;-69
2022/11/29 13:33:25;;;;;;;37.38;21.70;;;9.90;99.90;;;;;;4899302;29;20025;-69
2022/11/29 13:36:07;;;;;;;29.73;19.75;;;9.90;99.90;;;;;;4899362;29;20024;-70
2022/11/29 13:38:44;;;;;;;35.28;20.25;;;9.90;99.90;;;;;;4900364;29;20025;-70
2022/11/29 13:41:45;;;;;;;35.60;21.45;;;10.10;99.90;;;;;;4900896;29;20028;-70
2022/11/29 13:44:13;;;;;;;35.13;20.92;;;10.00;99.90;;;;;;4900728;29;20373;-71
2022/11/29 13:47:06;;;;;;;34.92;22.00;;;10.10;99.90;;;;;;4900761;29;20024;-69
2022/11/29 13:49:53;;;;;;;34.00;20.55;;;10.00;99.90;;;;;;4899898;29;20372;-69
2022/11/29 13:52:46;;;;;;;39.17;21.63;;;10.00;99.90;;;;;;4915538;29;20085;-70
2022/11/29 13:55:11;;;;;;;35.03;21.02;;;9.90;99.90;;;;;;4900894;29;20033;-69
2022/11/29 13:58:13;;;;;;;35.67;21.17;;;9.80;99.90;;;;;;4899140;29;20024;-69
2022/11/29 14:00:42;;;;;;;38.22;22.92;;;9.70;99.90;;;;;;4900719;29;20029;-69
2022/11/29 14:03:27;;;;;;;43.35;21.45;;;9.60;99.90;;;;;;4885981;29;20039;-69
2022/11/29 14:06:02;;;;;;;36.33;20.90;;;9.60;99.90;;;;;;4905423;29;20029;-67
2022/11/29 14:08:32;;;;;;;40.55;20.98;;;9.60;99.90;;;;;;4901941;29;20386;-69
2022/11/29 14:11:13;;;;;;;32.08;20.10;;;9.70;99.90;;;;;;4900157;29;20027;-69
2022/11/29 14:14:00;;;;;;;36.35;20.27;;;9.80;99.90;;;;;;4898632;29;20031;-68
2022/11/29 14:16:43;;;;;;;39.60;19.27;;;9.60;99.90;;;;;;4898870;29;20071;-71
2022/11/29 14:19:08;;;;;;;39.47;21.25;;;9.50;99.90;;;;;;4900334;29;20104;-72
2022/11/29 14:22:02;;;;;;;32.00;18.17;;;9.40;99.90;;;;;;4900423;29;20457;-70
2022/11/29 14:24:36;;;;;;;36.03;20.05;;;9.50;99.90;;;;;;4900097;29;20394;-71
2022/11/29 14:27:05;;;;;;;39.78;21.40;;;9.50;99.90;;;;;;4900415;29;20363;-70
2022/11/29 14:29:49;;;;;;;31.30;18.95;;;9.50;99.90;;;;;;4898881;29;20040;-72
2022/11/29 14:32:31;;;;;;;39.80;18.42;;;9.50;99.90;;;;;;4900430;29;20103;-71
2022/11/29 14:35:12;;;;;;;33.90;18.00;;;9.50;99.90;;;;;;4899507;29;20111;-68
2022/11/29 14:38:13;;;;;;;34.97;19.60;;;9.40;99.90;;;;;;4897520;29;20235;-66
2022/11/29 14:40:45;;;;;;;37.35;18.75;;;9.40;99.90;;;;;;4898213;29;20493;-67
2022/11/29 14:43:33;;;;;;;34.35;18.17;;;9.40;99.90;;;;;;4896758;29;20055;-65
2022/11/29 14:46:13;;;;;;;37.20;18.65;;;9.40;99.90;;;;;;4898886;29;20028;-67
2022/11/29 14:48:43;;;;;;;32.65;17.75;;;9.40;99.90;;;;;;4898779;29;20040;-69
2022/11/29 14:51:13;;;;;;;35.28;18.42;;;9.40;99.90;;;;;;4898041;29;20515;-69
2022/11/29 14:53:40;;;;;;;30.67;17.88;;;9.40;99.90;;;;;;4896415;29;20099;-69
2022/11/29 14:56:31;;;;;;;26.90;16.75;;;9.50;99.90;;;;;;4898717;29;20020;-68
2022/11/29 14:59:38;;;;;;;34.33;17.27;;;9.60;99.90;;;;;;4896665;29;20024;-69
2022/11/29 15:02:18;;;;;;;33.65;16.33;;;9.70;99.90;;;;;;4897845;29;20028;-69
2022/11/29 15:04:47;;;;;;;32.40;16.75;;;9.70;99.90;;;;;;4898344;29;20540;-69
2022/11/29 15:07:17;;;;;;;32.15;15.77;;;9.70;99.90;;;;;;4898485;29;20112;-68
2022/11/29 15:09:44;;;;;;;34.20;17.60;;;9.70;99.90;;;;;;4899704;29;20028;-67
2022/11/29 15:12:17;;;;;;;30.40;16.38;;;9.60;99.90;;;;;;4901484;29;20029;-68
2022/11/29 15:15:28;;;;;;;29.50;15.55;;;9.60;99.90;;;;;;4900048;29;20050;-69
2022/11/29 15:18:02;;;;;;;30.77;15.57;;;9.60;99.90;;;;;;4880865;29;20045;-70
2022/11/29 15:20:54;;;;;;;29.80;15.45;;;9.50;99.90;;;;;;4882027;29;20371;-67
2022/11/29 15:23:20;;;;;;;30.30;15.38;;;9.50;99.90;;;;;;4878379;29;20041;-69
2022/11/29 15:25:51;;;;;;;31.47;16.07;;;9.40;99.90;;;;;;4866238;29;20033;-68
2022/11/29 15:28:22;;;;;;;33.53;15.95;;;9.30;99.90;;;;;;4845346;29;20125;-68
2022/11/29 15:30:59;;;;;;;34.72;16.70;;;9.40;99.90;;;;;;4867145;29;20375;-68
2022/11/29 15:33:24;;;;;;;35.75;16.65;;;9.40;99.90;;;;;;4860739;29;20045;-67
2022/11/29 15:35:53;;;;;;;37.35;18.30;;;9.40;99.90;;;;;;4855622;29;20033;-68
2022/11/29 15:38:20;;;;;;;36.30;17.65;;;9.30;99.90;;;;;;4870585;29;20037;-68
2022/11/29 15:40:54;;;;;;;36.13;16.30;;;9.30;99.90;;;;;;4873999;29;20057;-67
2022/11/29 15:43:33;;;;;;;33.95;17.15;;;9.30;99.90;;;;;;4878117;29;20025;-68
2022/11/29 15:46:00;;;;;;;43.15;20.15;;;9.30;99.90;;;;;;4877994;29;20483;-66
2022/11/29 15:48:31;;;;;;;34.65;18.33;;;9.30;99.90;;;;;;4878574;29;20068;-67
2022/11/29 15:51:14;;;;;;;37.25;18.77;;;9.30;99.90;;;;;;4875782;29;20052;-66
2022/11/29 15:53:46;;;;;;;45.67;21.55;;;9.30;99.90;;;;;;4876448;29;20112;-67
2022/11/29 15:56:36;;;;;;;48.25;23.42;;;9.30;99.90;;;;;;4876820;29;20052;-66
2022/11/29 15:59:11;;;;;;;46.88;23.35;;;9.30;99.90;;;;;;4879344;29;20502;-67
2022/11/29 16:01:38;;;;;;;54.40;24.52;;;9.20;99.90;;;;;;4879683;29;20073;-67
2022/11/29 16:04:04;;;;;;;54.28;26.80;;;9.20;99.90;;;;;;4878952;29;20105;-68
2022/11/29 16:06:43;;;;;;;55.78;28.33;;;9.20;99.90;;;;;;4879452;29;20451;-68
2022/11/29 16:09:14;;;;;;;52.58;25.83;;;9.20;99.90;;;;;;4880349;29;20029;-69
2022/11/29 16:11:40;;;;;;;55.45;25.67;;;9.20;99.90;;;;;;4888624;29;20021;-71
2022/11/29 16:14:24;;;;;;;59.03;26.13;;;9.30;99.90;;;;;;4885051;29;20402;-70
2022/11/29 16:16:52;;;;;;;59.45;24.80;;;9.20;99.90;;;;;;4879984;29;20040;-70
2022/11/29 16:19:35;;;;;;;56.95;25.58;;;9.20;99.90;;;;;;4894887;29;20398;-69
2022/11/29 16:22:08;;;;;;;57.38;27.02;;;9.20;99.90;;;;;;4882342;29;20029;-69
2022/11/29 16:24:36;;;;;;;58.13;27.02;;;9.30;99.90;;;;;;4896514;29;20029;-69
2022/11/29 16:27:03;;;;;;;58.42;26.42;;;9.30;99.90;;;;;;4895466;29;20032;-69
2022/11/29 16:29:36;;;;;;;54.92;28.60;;;9.20;99.90;;;;;;4897226;29;20063;-68
2022/11/29 16:32:13;;;;;;;61.95;28.27;;;9.20;99.90;;;;;;4890913;29;20030;-68
2022/11/29 16:34:41;;;;;;;65.57;29.38;;;9.20;99.90;;;;;;4879046;29;20029;-68
2022/11/29 16:37:19;;;;;;;63.17;28.20;;;9.20;99.90;;;;;;4883922;29;20029;-69
2022/11/29 16:39:47;;;;;;;60.53;27.38;;;9.20;99.90;;;;;;4884494;29;20032;-68
2022/11/29 16:42:15;;;;;;;61.60;28.55;;;9.30;99.90;;;;;;4895140;29;20033;-69
2022/11/29 16:44:40;;;;;;;69.45;28.10;;;9.30;99.90;;;;;;4901454;29;20434;-68
2022/11/29 16:47:17;;;;;;;56.73;28.53;;;9.20;99.90;;;;;;4903514;29;20107;-68
2022/11/29 16:49:43;;;;;;;64.30;27.95;;;9.30;99.90;;;;;;4903387;29;20028;-70
2022/11/29 16:52:25;;;;;;;64.60;28.35;;;9.20;99.90;;;;;;4901936;29;20033;-70
2022/11/29 16:54:51;;;;;;;67.22;27.85;;;9.20;99.90;;;;;;4914780;29;20550;-70
2022/11/29 16:57:17;;;;;;;64.43;26.97;;;9.20;99.90;;;;;;4902157;29;20096;-70
2022/11/29 16:59:43;;;;;;;63.90;29.65;;;9.10;99.90;;;;;;4901594;29;20726;-70
2022/11/29 17:02:10;;;;;;;66.55;29.70;;;9.10;99.90;;;;;;4901679;29;20056;-70
2022/11/29 17:04:36;;;;;;;67.45;29.08;;;9.10;99.90;;;;;;4905446;29;20043;-71
2022/11/29 17:07:04;;;;;;;64.47;28.20;;;9.10;99.90;;;;;;4899570;29;20426;-70
2022/11/29 17:09:31;;;;;;;65.28;27.70;;;9.20;99.90;;;;;;4881763;29;20112;-69
2022/11/29 17:12:00;;;;;;;70.18;28.83;;;9.10;99.90;;;;;;4884917;29;20036;-70
2022/11/29 17:14:30;;;;;;;74.13;28.55;;;9.10;99.90;;;;;;4900507;29;20046;-70
2022/11/29 17:16:57;;;;;;;57.72;26.40;;;9.20;99.90;;;;;;4893559;29;20040;-68
2022/11/29 17:19:23;;;;;;;70.05;28.13;;;9.30;99.90;;;;;;4881290;29;20044;-68
2022/11/29 17:21:49;;;;;;;68.70;27.98;;;9.30;99.90;;;;;;4881756;29;20021;-68
2022/11/29 17:24:18;;;;;;;62.83;28.55;;;9.20;99.90;;;;;;4882518;29;20379;-68
2022/11/29 17:26:44;;;;;;;71.85;28.73;;;9.20;99.90;;;;;;4882683;29;20386;-68
2022/11/29 17:29:11;;;;;;;60.85;28.45;;;9.20;99.90;;;;;;4890714;29;20048;-67
2022/11/29 17:31:37;;;;;;;68.07;29.63;;;9.20;99.90;;;;;;4882470;29;20029;-68
2022/11/29 17:34:03;;;;;;;64.57;29.70;;;9.10;99.90;;;;;;4883031;29;20032;-69
2022/11/29 17:36:29;;;;;;;65.00;27.55;;;9.10;99.90;;;;;;4884582;29;20100;-69
2022/11/29 17:38:57;;;;;;;62.10;26.85;;;9.10;99.90;;;;;;4882862;29;20495;-68
2022/11/29 17:41:23;;;;;;;68.43;27.00;;;9.20;99.90;;;;;;4883636;29;20033;-68
2022/11/29 17:43:50;;;;;;;51.50;24.30;;;9.20;99.90;;;;;;4882890;29;20096;-67
2022/11/29 17:46:18;;;;;;;62.70;26.90;;;9.30;99.90;;;;;;4881775;29;20041;-68
2022/11/29 17:48:45;;;;;;;58.25;25.63;;;9.20;99.90;;;;;;4882776;29;20060;-67
2022/11/29 17:51:12;;;;;;;59.75;25.85;;;9.10;99.90;;;;;;4884013;29;20025;-68
2022/11/29 17:53:37;;;;;;;55.97;25.80;;;9.10;99.90;;;;;;4900747;29;20371;-68
2022/11/29 17:56:05;;;;;;;59.77;24.13;;;9.10;99.90;;;;;;4902239;29;20036;-68
2022/11/29 17:58:31;;;;;;;57.00;25.38;;;9.10;99.90;;;;;;4882548;29;20104;-67
2022/11/29 18:01:18;;;;;;;59.80;26.30;;;9.10;99.90;;;;;;4893021;29;20108;-69
2022/11/29 18:03:45;;;;;;;62.70;27.13;;;9.10;99.90;;;;;;4902857;29;20024;-67
2022/11/29 18:06:17;;;;;;;65.40;27.35;;;9.10;99.90;;;;;;4896759;29;20023;-69
2022/11/29 18:08:45;;;;;;;55.15;25.25;;;9.00;99.90;;;;;;4900830;29;20165;-69
2022/11/29 18:11:20;;;;;;;58.75;26.70;;;9.10;99.90;;;;;;4900009;29;20036;-67
2022/11/29 18:13:45;;;;;;;62.53;26.95;;;9.00;99.90;;;;;;4897224;29;20032;-69
2022/11/29 18:16:17;;;;;;;63.17;26.67;;;9.00;99.90;;;;;;4899782;29;20043;-67
2022/11/29 18:18:43;;;;;;;52.00;24.73;;;9.00;99.90;;;;;;4897417;29;20038;-67
2022/11/29 18:21:10;;;;;;;61.33;28.75;;;9.00;99.90;;;;;;4898109;29;20374;-67
2022/11/29 18:23:39;;;;;;;61.05;25.15;;;9.10;99.90;;;;;;4899216;29;20096;-68
2022/11/29 18:26:09;;;;;;;57.90;26.15;;;9.10;99.90;;;;;;4900392;29;20107;-68
2022/11/29 18:28:36;;;;;;;59.45;25.20;;;9.10;99.90;;;;;;4900126;29;20052;-69